Time;durP1;ratioP1;P1;durP2;ratioP2;P2;SDS_P1;SDS_P2;PMS_P1;PMS_P2;Temp;Humidity;BMP_temperature;BMP_pressure;BME280_temperature;BME280_humidity;BME280_pressure;Samples;Min_cycle;Max_cycle;Signal;HPM_P1;HPM_P2
2022/03/10 00:01:28;;;;;;;10.25;4.97;;;1.50;99.90;;;;;;5206437;28;20017;-72
2022/03/10 00:03:59;;;;;;;7.25;3.83;;;1.50;99.90;;;;;;5206555;28;20037;-72
2022/03/10 00:06:30;;;;;;;7.30;4.05;;;1.50;99.90;;;;;;5208907;28;20534;-72
2022/03/10 00:09:02;;;;;;;7.22;4.13;;;1.40;99.90;;;;;;5209271;28;20037;-72
2022/03/10 00:11:33;;;;;;;7.43;4.05;;;1.50;99.90;;;;;;5210587;28;20029;-79
2022/03/10 00:14:03;;;;;;;7.45;4.10;;;1.50;99.90;;;;;;5210618;28;20072;-72
2022/03/10 00:16:34;;;;;;;6.78;3.70;;;1.30;99.90;;;;;;5210520;28;20480;-72
2022/03/10 00:19:06;;;;;;;7.15;3.45;;;1.30;99.90;;;;;;5210527;28;20087;-73
2022/03/10 00:21:36;;;;;;;7.15;4.15;;;1.40;99.90;;;;;;5210398;28;20117;-72
2022/03/10 00:24:07;;;;;;;6.15;3.63;;;1.30;99.90;;;;;;5210364;28;20463;-72
2022/03/10 00:26:38;;;;;;;8.00;4.13;;;1.50;99.90;;;;;;5210173;28;20025;-72
2022/03/10 00:29:10;;;;;;;7.68;4.32;;;1.50;99.90;;;;;;5210171;28;20037;-72
2022/03/10 00:31:41;;;;;;;10.93;5.22;;;1.40;99.90;;;;;;5210218;28;20025;-72
2022/03/10 00:34:11;;;;;;;12.40;5.15;;;1.50;99.90;;;;;;5209394;28;20046;-72
2022/03/10 00:36:42;;;;;;;10.45;4.63;;;1.70;99.90;;;;;;5208838;28;20037;-72
2022/03/10 00:39:13;;;;;;;12.20;4.95;;;1.70;99.90;;;;;;5208645;28;20053;-72
2022/03/10 00:41:44;;;;;;;10.13;4.32;;;1.70;99.90;;;;;;5208781;28;20036;-73
2022/03/10 00:44:15;;;;;;;9.70;4.45;;;1.60;99.90;;;;;;5208713;28;20026;-72
2022/03/10 00:46:46;;;;;;;5.35;3.80;;;1.50;99.90;;;;;;5208490;28;20377;-72
2022/03/10 00:49:16;;;;;;;7.38;3.80;;;1.30;99.90;;;;;;5208859;28;20032;-72
2022/03/10 00:51:50;;;;;;;7.40;3.25;;;1.20;99.90;;;;;;5208645;28;20441;-71
2022/03/10 00:54:21;;;;;;;6.43;4.00;;;1.20;99.90;;;;;;5208498;28;20083;-72
2022/03/10 00:56:52;;;;;;;8.60;4.07;;;1.30;99.90;;;;;;5208493;28;20025;-72
2022/03/10 00:59:23;;;;;;;9.82;4.00;;;1.20;99.90;;;;;;5208340;28;20017;-72
2022/03/10 01:01:54;;;;;;;10.73;4.00;;;1.10;99.90;;;;;;5208406;28;20723;-72
2022/03/10 01:04:25;;;;;;;10.48;4.57;;;1.10;99.90;;;;;;5208246;28;20017;-72
2022/03/10 01:06:55;;;;;;;6.90;4.40;;;1.20;99.90;;;;;;5208334;28;20095;-72
2022/03/10 01:09:26;;;;;;;9.55;4.20;;;1.10;99.90;;;;;;5208038;28;20124;-73
2022/03/10 01:11:57;;;;;;;11.02;3.72;;;1.10;99.90;;;;;;5208301;28;20061;-72
2022/03/10 01:14:28;;;;;;;7.10;3.92;;;1.10;99.90;;;;;;5208152;28;20044;-72
2022/03/10 01:16:59;;;;;;;6.90;3.47;;;1.10;99.90;;;;;;5207805;28;20023;-72
2022/03/10 01:19:30;;;;;;;8.70;4.05;;;1.20;99.90;;;;;;5208079;28;20112;-72
2022/03/10 01:22:01;;;;;;;7.80;3.58;;;1.20;99.90;;;;;;5208117;28;20548;-77
2022/03/10 01:24:32;;;;;;;8.80;4.38;;;1.10;99.90;;;;;;5208106;28;20155;-75
2022/03/10 01:27:03;;;;;;;6.25;3.90;;;1.00;99.90;;;;;;5208076;28;20370;-77
2022/03/10 01:29:34;;;;;;;6.40;4.38;;;0.90;99.90;;;;;;5207777;28;20124;-76
2022/03/10 01:32:05;;;;;;;7.70;3.67;;;1.20;99.90;;;;;;5207775;28;20151;-75
2022/03/10 01:34:36;;;;;;;9.63;3.90;;;1.10;99.90;;;;;;5151808;28;1636519;-77
2022/03/10 01:37:07;;;;;;;4.55;3.00;;;0.90;99.90;;;;;;5209027;28;20033;-72
2022/03/10 01:39:37;;;;;;;4.63;2.80;;;0.80;99.90;;;;;;5208882;28;20388;-73
2022/03/10 01:42:08;;;;;;;6.03;2.40;;;0.70;99.90;;;;;;5208779;28;20068;-72
2022/03/10 01:44:40;;;;;;;3.95;2.55;;;0.80;99.90;;;;;;5208668;28;20025;-72
2022/03/10 01:47:10;;;;;;;4.07;2.63;;;0.60;99.90;;;;;;5208754;28;20033;-72
2022/03/10 01:49:41;;;;;;;5.03;2.53;;;0.50;99.90;;;;;;5209677;28;20029;-72
2022/03/10 01:52:14;;;;;;;6.20;2.35;;;0.70;99.90;;;;;;5208628;28;20018;-72
2022/03/10 01:54:45;;;;;;;5.70;2.95;;;0.40;99.90;;;;;;5209211;28;20021;-73
2022/03/10 01:57:16;;;;;;;4.55;2.60;;;0.60;99.90;;;;;;5208607;28;20028;-72
2022/03/10 01:59:46;;;;;;;3.90;2.90;;;0.50;99.90;;;;;;5208574;28;20026;-72
2022/03/10 02:02:17;;;;;;;4.40;2.60;;;0.40;99.90;;;;;;5208432;28;20078;-72
2022/03/10 02:04:48;;;;;;;4.28;3.10;;;0.40;99.90;;;;;;5208348;28;20037;-72
2022/03/10 02:10:17;;;;;;;6.82;4.00;;;0.20;99.90;;;;;;5208713;28;20132;-72
2022/03/10 02:12:54;;;;;;;6.80;3.63;;;0.30;99.90;;;;;;5208323;28;20022;-72
2022/03/10 02:18:19;;;;;;;5.38;3.53;;;0.30;99.90;;;;;;5208482;28;20044;-72
2022/03/10 02:20:50;;;;;;;4.97;3.50;;;0.40;99.90;;;;;;5208225;28;20065;-73
2022/03/10 02:23:22;;;;;;;5.22;3.50;;;0.30;99.90;;;;;;5208073;28;20552;-72
2022/03/10 02:26:00;;;;;;;8.18;5.00;;;0.40;99.90;;;;;;5207858;28;20041;-73
2022/03/10 02:28:32;;;;;;;16.20;8.07;;;0.30;99.90;;;;;;5205839;28;20038;-72
2022/03/10 02:31:03;;;;;;;17.92;8.32;;;0.30;99.90;;;;;;5207838;28;20053;-72
2022/03/10 02:33:34;;;;;;;7.95;5.25;;;0.00;99.90;;;;;;5207604;28;20117;-72
2022/03/10 02:36:05;;;;;;;9.73;4.82;;;0.30;99.90;;;;;;5207815;28;20037;-72
2022/03/10 02:38:36;;;;;;;9.02;4.65;;;0.60;99.90;;;;;;5207696;28;20106;-72
2022/03/10 02:41:07;;;;;;;9.20;4.68;;;0.80;99.90;;;;;;5207741;28;20083;-76
2022/03/10 02:43:38;;;;;;;10.38;4.40;;;0.90;99.90;;;;;;5207670;28;20014;-72
2022/03/10 02:46:09;;;;;;;9.18;4.93;;;0.80;99.90;;;;;;5207559;28;20346;-72
2022/03/10 02:48:40;;;;;;;8.68;4.60;;;0.80;99.90;;;;;;5207468;28;20103;-71
2022/03/10 02:51:12;;;;;;;8.40;3.75;;;0.60;99.90;;;;;;5207527;28;20096;-77
2022/03/10 02:53:43;;;;;;;9.40;3.80;;;0.70;99.90;;;;;;5207621;28;20026;-72
2022/03/10 02:56:15;;;;;;;10.73;4.60;;;0.70;99.90;;;;;;5207577;28;20084;-77
2022/03/10 02:58:46;;;;;;;8.95;4.60;;;0.80;99.90;;;;;;5207373;28;20018;-72
2022/03/10 03:01:17;;;;;;;7.53;4.07;;;0.70;99.90;;;;;;5207241;28;20123;-72
2022/03/10 03:03:47;;;;;;;9.95;4.85;;;0.80;99.90;;;;;;5207197;28;20381;-72
2022/03/10 03:06:19;;;;;;;9.48;4.75;;;0.90;99.90;;;;;;5207067;28;20033;-72
2022/03/10 03:08:50;;;;;;;9.82;4.93;;;0.60;99.90;;;;;;5207118;28;20091;-78
2022/03/10 03:11:21;;;;;;;10.00;5.10;;;0.60;99.90;;;;;;5207134;28;20029;-72
2022/03/10 03:13:51;;;;;;;11.23;6.18;;;0.50;99.90;;;;;;5207213;28;20029;-72
2022/03/10 03:16:27;;;;;;;16.23;7.00;;;0.50;99.90;;;;;;5207122;28;20025;-72
2022/03/10 03:18:58;;;;;;;11.88;6.45;;;0.40;99.90;;;;;;5207120;28;20079;-77
2022/03/10 03:21:29;;;;;;;13.95;5.68;;;0.40;99.90;;;;;;5206927;28;20029;-72
2022/03/10 03:24:00;;;;;;;9.63;5.32;;;0.40;99.90;;;;;;5206942;28;20022;-78
2022/03/10 03:26:31;;;;;;;12.95;4.63;;;0.60;99.90;;;;;;5206777;28;20067;-72
2022/03/10 03:29:02;;;;;;;8.80;4.95;;;0.50;99.90;;;;;;5206780;28;20037;-74
2022/03/10 03:31:32;;;;;;;7.68;4.10;;;0.50;99.90;;;;;;5206922;28;20022;-72
2022/03/10 03:34:10;;;;;;;8.52;3.80;;;0.50;99.90;;;;;;5206480;28;20053;-71
2022/03/10 03:36:42;;;;;;;8.32;4.20;;;0.40;99.90;;;;;;5206884;28;20022;-76
2022/03/10 03:39:14;;;;;;;9.23;4.75;;;0.30;99.90;;;;;;5206615;28;20080;-72
2022/03/10 03:41:45;;;;;;;9.98;4.65;;;0.20;99.90;;;;;;5206776;28;20029;-77
2022/03/10 03:44:16;;;;;;;8.90;5.72;;;0.30;99.90;;;;;;5206727;28;20036;-72
2022/03/10 03:46:46;;;;;;;13.05;5.38;;;0.20;99.90;;;;;;5206668;28;20030;-76
2022/03/10 03:49:17;;;;;;;9.20;4.78;;;0.10;99.90;;;;;;5205209;28;20033;-72
2022/03/10 03:51:48;;;;;;;9.07;5.10;;;0.00;99.90;;;;;;5206594;28;20025;-72
2022/03/10 03:54:19;;;;;;;9.48;5.03;;;0.00;99.90;;;;;;5206567;28;20050;-71
2022/03/10 03:56:50;;;;;;;9.70;5.10;;;0.10;99.90;;;;;;5206648;28;20112;-72
2022/03/10 03:59:21;;;;;;;9.63;4.55;;;0.10;99.90;;;;;;5206546;28;20465;-72
2022/03/10 04:01:51;;;;;;;5.13;3.85;;;0.10;99.90;;;;;;5206473;28;20022;-72
2022/03/10 04:04:22;;;;;;;9.50;4.55;;;0.10;99.90;;;;;;5206407;28;20477;-71
2022/03/10 04:06:53;;;;;;;5.85;4.30;;;0.00;99.90;;;;;;5206407;28;20018;-72
2022/03/10 04:09:24;;;;;;;7.68;4.40;;;0.10;99.90;;;;;;5206356;28;20477;-77
2022/03/10 04:11:55;;;;;;;7.55;5.20;;;0.10;99.90;;;;;;5206443;28;20156;-71
2022/03/10 04:14:27;;;;;;;10.07;5.30;;;-0.10;99.90;;;;;;5206351;28;20022;-77
2022/03/10 04:16:57;;;;;;;6.50;4.40;;;-0.20;99.90;;;;;;5206430;28;20040;-72
2022/03/10 04:19:28;;;;;;;6.85;4.78;;;-0.10;99.90;;;;;;5206308;28;20523;-73
2022/03/10 04:22:00;;;;;;;9.90;5.50;;;-0.20;99.90;;;;;;5206356;28;20060;-72
2022/03/10 04:24:31;;;;;;;9.82;5.53;;;-0.30;99.90;;;;;;5206287;28;20017;-76
2022/03/10 04:27:02;;;;;;;8.80;5.03;;;-0.10;99.90;;;;;;5206220;28;20030;-72
2022/03/10 04:29:33;;;;;;;9.23;5.45;;;0.00;99.90;;;;;;5206287;28;20130;-72
2022/03/10 04:32:04;;;;;;;9.30;6.20;;;0.00;99.90;;;;;;5204936;28;20513;-72
2022/03/10 04:34:35;;;;;;;8.32;5.60;;;-0.10;99.90;;;;;;5205978;28;20050;-72
2022/03/10 04:37:06;;;;;;;6.95;4.72;;;-0.20;99.90;;;;;;5206161;28;20026;-72
2022/03/10 04:39:37;;;;;;;11.38;7.47;;;-0.10;99.90;;;;;;5206118;28;20095;-77
2022/03/10 04:42:08;;;;;;;11.90;7.22;;;0.00;99.90;;;;;;5206099;28;20072;-71
2022/03/10 04:44:38;;;;;;;12.05;7.93;;;0.00;99.90;;;;;;5206002;28;20483;-73
2022/03/10 04:47:09;;;;;;;17.25;10.25;;;0.00;99.90;;;;;;5206034;28;20045;-71
2022/03/10 04:49:40;;;;;;;12.07;8.25;;;-0.10;99.90;;;;;;5205966;28;20420;-76
2022/03/10 04:52:11;;;;;;;12.27;7.85;;;0.00;99.90;;;;;;5207915;28;20033;-72
2022/03/10 04:54:42;;;;;;;9.68;5.63;;;-0.10;99.90;;;;;;5209760;28;20057;-72
2022/03/10 04:57:12;;;;;;;10.35;6.13;;;-0.10;99.90;;;;;;5209700;28;20104;-76
2022/03/10 04:59:43;;;;;;;9.35;5.10;;;-0.10;99.90;;;;;;5209802;28;20026;-77
2022/03/10 05:02:14;;;;;;;6.93;4.53;;;0.00;99.90;;;;;;5225153;28;20040;-72
2022/03/10 05:04:45;;;;;;;5.18;3.78;;;0.10;99.90;;;;;;5209430;28;20068;-71
2022/03/10 05:07:16;;;;;;;6.15;4.13;;;0.20;99.90;;;;;;5209409;28;20072;-77
2022/03/10 05:09:47;;;;;;;6.57;3.10;;;0.30;99.90;;;;;;5209607;28;20112;-71
2022/03/10 05:12:17;;;;;;;4.22;2.30;;;0.30;99.90;;;;;;5209499;28;20022;-77
2022/03/10 05:14:48;;;;;;;4.68;2.70;;;0.40;99.90;;;;;;5209476;28;20110;-78
2022/03/10 05:17:21;;;;;;;3.45;2.10;;;0.40;99.90;;;;;;5209300;28;20037;-73
2022/03/10 05:19:52;;;;;;;6.10;2.72;;;0.50;99.90;;;;;;5209354;28;20048;-71
2022/03/10 05:22:23;;;;;;;6.05;2.90;;;0.40;99.90;;;;;;5209404;28;20473;-72
2022/03/10 05:24:54;;;;;;;4.78;2.58;;;0.40;99.90;;;;;;5209144;28;20057;-71
2022/03/10 05:27:24;;;;;;;4.57;2.30;;;0.40;99.90;;;;;;5209136;28;20064;-72
2022/03/10 05:29:56;;;;;;;6.15;3.42;;;0.40;99.90;;;;;;5209194;28;20362;-78
2022/03/10 05:32:26;;;;;;;7.93;3.25;;;0.40;99.90;;;;;;5209078;28;20075;-72
2022/03/10 05:34:57;;;;;;;7.03;2.97;;;0.40;99.90;;;;;;5208807;28;20053;-71
2022/03/10 05:37:28;;;;;;;7.32;3.67;;;0.50;99.90;;;;;;5208959;28;20021;-72
2022/03/10 05:40:00;;;;;;;7.95;4.07;;;0.40;99.90;;;;;;5208922;28;20087;-78
2022/03/10 05:42:30;;;;;;;6.90;2.97;;;0.50;99.90;;;;;;5208913;28;20539;-72
2022/03/10 05:45:01;;;;;;;5.50;2.28;;;0.70;99.90;;;;;;5208731;28;20025;-72
2022/03/10 05:47:32;;;;;;;6.07;3.50;;;0.70;99.90;;;;;;5208881;28;20097;-79
2022/03/10 05:50:04;;;;;;;8.45;3.85;;;0.70;99.90;;;;;;5208770;28;20186;-72
2022/03/10 05:52:35;;;;;;;8.07;4.60;;;0.70;99.90;;;;;;5207456;28;20465;-72
2022/03/10 05:55:07;;;;;;;10.63;4.47;;;0.70;99.90;;;;;;5208608;28;20022;-72
2022/03/10 05:57:37;;;;;;;5.28;2.65;;;0.70;99.90;;;;;;5208536;28;20115;-78
2022/03/10 06:00:10;;;;;;;7.18;3.70;;;0.70;99.90;;;;;;5208601;28;20072;-78
2022/03/10 06:02:41;;;;;;;4.97;2.25;;;0.80;99.90;;;;;;5207930;28;20065;-71
2022/03/10 06:05:12;;;;;;;5.18;2.00;;;0.70;99.90;;;;;;5206907;28;20498;-72
2022/03/10 06:07:43;;;;;;;3.75;1.90;;;0.60;99.90;;;;;;5208341;28;20064;-72
2022/03/10 06:10:14;;;;;;;7.95;2.75;;;0.40;99.90;;;;;;5208451;28;20033;-71
2022/03/10 06:12:45;;;;;;;31.02;12.65;;;0.60;99.90;;;;;;5223773;28;20529;-72
2022/03/10 06:15:16;;;;;;;4.25;2.38;;;0.50;99.90;;;;;;5208241;28;20052;-72
2022/03/10 06:17:47;;;;;;;7.00;1.90;;;0.20;99.90;;;;;;5208377;28;20468;-77
2022/03/10 06:20:18;;;;;;;5.32;2.40;;;0.40;99.90;;;;;;5208073;28;20031;-77
2022/03/10 06:22:48;;;;;;;4.10;2.20;;;0.50;99.90;;;;;;5208144;28;20157;-72
2022/03/10 06:25:19;;;;;;;5.32;1.92;;;0.40;99.90;;;;;;5208027;28;20021;-72
2022/03/10 06:27:50;;;;;;;4.55;2.17;;;0.30;99.90;;;;;;5208115;28;20040;-72
2022/03/10 06:30:21;;;;;;;5.90;1.98;;;0.30;99.90;;;;;;5207996;28;20029;-79
2022/03/10 06:32:52;;;;;;;4.38;2.00;;;0.50;99.90;;;;;;5207757;28;20023;-78
2022/03/10 06:35:23;;;;;;;5.07;2.72;;;0.60;99.90;;;;;;5207623;28;20054;-79
2022/03/10 06:37:53;;;;;;;3.80;2.35;;;0.50;99.90;;;;;;5207863;28;20372;-72
2022/03/10 06:40:24;;;;;;;7.85;3.25;;;0.40;99.90;;;;;;5207754;28;20033;-72
2022/03/10 06:42:55;;;;;;;3.70;2.15;;;0.50;99.90;;;;;;5207691;28;20469;-79
2022/03/10 06:45:26;;;;;;;18.10;7.50;;;0.60;99.90;;;;;;5207602;28;20033;-78
2022/03/10 06:47:58;;;;;;;17.83;9.00;;;0.70;99.90;;;;;;5207426;28;20062;-79
2022/03/10 06:50:29;;;;;;;9.23;3.30;;;0.80;99.90;;;;;;5207578;28;20032;-72
2022/03/10 06:53:00;;;;;;;7.65;3.78;;;0.80;99.90;;;;;;5207460;28;20014;-72
2022/03/10 06:55:30;;;;;;;6.88;3.08;;;0.90;99.90;;;;;;5207514;28;20053;-79
2022/03/10 06:58:01;;;;;;;7.32;2.83;;;1.10;99.90;;;;;;5207382;28;20423;-72
2022/03/10 07:00:32;;;;;;;4.97;3.10;;;1.10;99.90;;;;;;5207364;28;20108;-78
2022/03/10 07:03:04;;;;;;;6.85;3.40;;;1.10;99.90;;;;;;5207155;28;20362;-76
2022/03/10 07:05:34;;;;;;;9.38;3.20;;;1.20;99.90;;;;;;5207092;28;20022;-71
2022/03/10 07:08:05;;;;;;;7.10;3.13;;;1.10;99.90;;;;;;5207129;28;20022;-71
2022/03/10 07:10:37;;;;;;;11.52;3.28;;;1.10;99.90;;;;;;5207197;28;20469;-72
2022/03/10 07:13:08;;;;;;;10.55;3.35;;;1.10;99.90;;;;;;5207069;28;20030;-79
2022/03/10 07:15:39;;;;;;;8.73;2.53;;;1.30;99.90;;;;;;5206751;28;20511;-78
2022/03/10 07:18:10;;;;;;;8.13;2.45;;;1.00;99.90;;;;;;5207049;28;20021;-71
2022/03/10 07:20:41;;;;;;;5.22;1.92;;;1.00;99.90;;;;;;5207030;28;20455;-76
2022/03/10 07:23:12;;;;;;;6.22;2.20;;;1.10;99.90;;;;;;5207050;28;20032;-80
2022/03/10 07:25:43;;;;;;;4.45;2.13;;;1.00;99.90;;;;;;5206873;28;20027;-71
2022/03/10 07:28:13;;;;;;;5.78;2.38;;;1.00;99.90;;;;;;5206697;28;20034;-72
2022/03/10 07:30:44;;;;;;;6.63;1.77;;;0.90;99.90;;;;;;5206853;28;20018;-71
2022/03/10 07:33:15;;;;;;;4.07;2.00;;;0.70;99.90;;;;;;5206542;28;20021;-71
2022/03/10 07:35:46;;;;;;;8.13;2.55;;;0.70;99.90;;;;;;5206890;28;20037;-70
2022/03/10 07:38:17;;;;;;;5.60;2.53;;;0.70;99.90;;;;;;5206755;28;20029;-79
2022/03/10 07:40:47;;;;;;;12.32;3.20;;;0.70;99.90;;;;;;5206755;28;20033;-80
2022/03/10 07:43:18;;;;;;;7.50;3.38;;;0.60;99.90;;;;;;5206752;28;20064;-78
2022/03/10 07:45:50;;;;;;;8.77;4.70;;;0.80;99.90;;;;;;5206593;28;20105;-80
2022/03/10 07:48:21;;;;;;;6.70;3.17;;;0.80;99.90;;;;;;5206542;28;20037;-80
2022/03/10 07:50:52;;;;;;;8.98;3.60;;;0.70;99.90;;;;;;5206729;28;20087;-75
2022/03/10 07:53:23;;;;;;;12.57;3.65;;;0.70;99.90;;;;;;5206662;28;20097;-80
2022/03/10 07:55:56;;;;;;;8.93;3.78;;;0.60;99.90;;;;;;5206613;28;20029;-78
2022/03/10 07:58:28;;;;;;;9.82;4.07;;;0.60;99.90;;;;;;5206500;28;20026;-71
2022/03/10 08:01:00;;;;;;;7.55;3.83;;;0.60;99.90;;;;;;5206417;28;20041;-71
2022/03/10 08:03:30;;;;;;;6.93;3.42;;;0.60;99.90;;;;;;5206426;28;20477;-71
2022/03/10 08:06:02;;;;;;;6.10;3.30;;;0.50;99.90;;;;;;5205159;28;20032;-79
2022/03/10 08:08:33;;;;;;;7.55;3.00;;;0.40;99.90;;;;;;5206559;28;20026;-73
2022/03/10 08:11:05;;;;;;;9.95;4.15;;;0.30;99.90;;;;;;5206537;28;20032;-72
2022/03/10 08:13:36;;;;;;;6.10;3.20;;;0.30;99.90;;;;;;5206529;28;20033;-71
2022/03/10 08:16:06;;;;;;;10.98;3.50;;;0.50;99.90;;;;;;5206469;28;20109;-72
2022/03/10 08:18:38;;;;;;;5.25;3.03;;;0.60;99.90;;;;;;5206393;28;20021;-70
2022/03/10 08:21:09;;;;;;;6.97;3.53;;;0.50;99.90;;;;;;5206403;28;20442;-81
2022/03/10 08:23:40;;;;;;;8.57;3.60;;;0.70;99.90;;;;;;5206319;28;20061;-80
2022/03/10 08:26:11;;;;;;;9.55;3.38;;;0.90;99.90;;;;;;5206596;28;20029;-71
2022/03/10 08:28:42;;;;;;;6.30;3.88;;;0.70;99.90;;;;;;5210248;28;20060;-80
2022/03/10 08:31:12;;;;;;;6.85;3.33;;;0.90;99.90;;;;;;5210187;28;20026;-71
2022/03/10 08:33:43;;;;;;;7.80;4.00;;;0.60;99.90;;;;;;5209970;28;20033;-79
2022/03/10 08:36:14;;;;;;;5.22;3.20;;;0.80;99.90;;;;;;5225609;28;20082;-81
2022/03/10 08:38:45;;;;;;;6.88;2.83;;;0.80;99.90;;;;;;5210124;28;20099;-71
2022/03/10 08:41:16;;;;;;;6.93;2.88;;;0.80;99.90;;;;;;5210166;28;20025;-73
2022/03/10 08:43:47;;;;;;;6.32;2.70;;;1.00;99.90;;;;;;5210111;28;20096;-78
2022/03/10 08:46:18;;;;;;;5.82;3.00;;;1.30;99.90;;;;;;5209953;28;20025;-72
2022/03/10 08:48:49;;;;;;;5.53;2.80;;;1.10;99.90;;;;;;5225267;28;20522;-72
2022/03/10 08:51:20;;;;;;;10.13;3.47;;;1.30;99.90;;;;;;5209989;28;20056;-78
2022/03/10 08:53:50;;;;;;;9.60;3.85;;;1.10;99.90;;;;;;5209889;28;20391;-79
2022/03/10 08:56:21;;;;;;;7.22;2.38;;;1.30;99.90;;;;;;5209829;28;20027;-79
2022/03/10 08:58:52;;;;;;;5.43;2.80;;;1.30;99.90;;;;;;5209853;28;20397;-72
2022/03/10 09:01:23;;;;;;;6.28;2.60;;;1.50;99.90;;;;;;5209703;28;20025;-80
2022/03/10 09:03:54;;;;;;;8.25;3.13;;;1.20;99.90;;;;;;5209524;28;20033;-72
2022/03/10 09:06:25;;;;;;;3.95;1.83;;;1.30;99.90;;;;;;5209543;28;20021;-78
2022/03/10 09:08:56;;;;;;;3.45;1.92;;;0.90;99.90;;;;;;5209421;28;20547;-72
2022/03/10 09:11:27;;;;;;;5.78;2.70;;;1.00;99.90;;;;;;5209580;28;20075;-80
2022/03/10 09:13:59;;;;;;;4.13;2.00;;;1.20;99.90;;;;;;5209569;28;20033;-71
2022/03/10 09:16:31;;;;;;;6.32;2.65;;;1.00;99.90;;;;;;5209435;28;20026;-72
2022/03/10 09:19:02;;;;;;;7.63;2.92;;;1.00;99.90;;;;;;5209359;28;20030;-79
2022/03/10 09:21:33;;;;;;;4.53;2.60;;;0.90;99.90;;;;;;5209391;28;20017;-80
2022/03/10 09:24:05;;;;;;;8.43;4.30;;;0.60;99.90;;;;;;5209340;28;20022;-80
2022/03/10 09:26:37;;;;;;;9.73;4.35;;;0.50;99.90;;;;;;5209011;28;20025;-79
2022/03/10 09:29:08;;;;;;;8.18;4.40;;;0.50;99.90;;;;;;5209092;28;20041;-80
2022/03/10 09:31:39;;;;;;;6.85;4.13;;;0.60;99.90;;;;;;5209164;28;20083;-79
2022/03/10 09:34:10;;;;;;;11.77;5.50;;;0.70;99.90;;;;;;5208722;28;20140;-73
2022/03/10 09:36:41;;;;;;;9.10;4.10;;;0.90;99.90;;;;;;5209059;28;20369;-72
2022/03/10 09:39:13;;;;;;;8.23;3.47;;;1.30;99.90;;;;;;5208770;28;20033;-72
2022/03/10 09:41:45;;;;;;;9.95;4.07;;;1.30;99.90;;;;;;5208979;28;20022;-72
2022/03/10 09:44:20;;;;;;;10.20;3.88;;;1.40;99.90;;;;;;5209025;28;20075;-72
2022/03/10 09:46:52;;;;;;;8.45;3.90;;;1.30;99.90;;;;;;5208771;28;20032;-73
2022/03/10 09:49:23;;;;;;;7.88;3.20;;;1.30;99.90;;;;;;5208789;28;20040;-72
2022/03/10 09:51:56;;;;;;;9.43;3.70;;;1.30;99.90;;;;;;5208792;28;20025;-80
2022/03/10 09:54:28;;;;;;;8.88;3.85;;;1.00;99.90;;;;;;5208763;28;20038;-80
2022/03/10 09:56:59;;;;;;;6.88;3.75;;;0.80;99.90;;;;;;5208600;28;20018;-72
2022/03/10 09:59:33;;;;;;;9.48;3.75;;;0.70;99.90;;;;;;5208586;28;20033;-80
2022/03/10 10:02:04;;;;;;;9.07;2.78;;;0.50;99.90;;;;;;5208507;28;20443;-79
2022/03/10 10:04:35;;;;;;;8.65;3.75;;;0.30;99.90;;;;;;5208523;28;20373;-74
2022/03/10 10:07:08;;;;;;;7.40;5.05;;;0.20;99.90;;;;;;5208294;28;20032;-71
2022/03/10 10:09:46;;;;;;;9.38;4.75;;;0.20;99.90;;;;;;5208449;28;20358;-71
2022/03/10 10:12:24;;;;;;;10.98;5.85;;;0.20;99.90;;;;;;5208423;28;20049;-80
2022/03/10 10:14:57;;;;;;;10.55;6.07;;;0.20;99.90;;;;;;5208363;28;20056;-72
2022/03/10 10:17:31;;;;;;;14.88;6.85;;;0.20;99.90;;;;;;5208145;28;20473;-72
2022/03/10 10:20:02;;;;;;;10.63;6.40;;;0.40;99.90;;;;;;5208182;28;20033;-80
2022/03/10 10:22:33;;;;;;;14.07;7.20;;;0.30;99.90;;;;;;5208187;28;20032;-73
2022/03/10 10:25:06;;;;;;;13.88;6.75;;;0.40;99.90;;;;;;5208039;28;20029;-72
2022/03/10 10:27:38;;;;;;;11.55;7.00;;;0.50;99.90;;;;;;5207957;28;20414;-83
2022/03/10 10:30:10;;;;;;;10.43;6.18;;;0.70;99.90;;;;;;5208068;28;20040;-72
2022/03/10 10:32:49;;;;;;;17.55;5.93;;;0.90;99.90;;;;;;5207865;28;20057;-83
2022/03/10 10:35:20;;;;;;;22.13;7.07;;;1.00;99.90;;;;;;5207685;28;20049;-71
2022/03/10 10:37:54;;;;;;;6.80;4.15;;;1.20;99.90;;;;;;5207810;28;20025;-83
2022/03/10 10:40:27;;;;;;;9.80;3.20;;;1.30;99.90;;;;;;5207858;28;20014;-71
2022/03/10 10:43:01;;;;;;;12.13;3.05;;;1.60;99.90;;;;;;5207658;28;20124;-71
2022/03/10 10:45:37;;;;;;;7.50;2.90;;;1.40;99.90;;;;;;5207645;28;20093;-78
2022/03/10 10:48:10;;;;;;;5.47;2.45;;;1.50;99.90;;;;;;5207652;28;20541;-71
2022/03/10 10:50:46;;;;;;;12.00;2.88;;;1.40;99.90;;;;;;5207022;28;20429;-71
2022/03/10 10:53:31;;;;;;;9.20;2.97;;;1.30;99.90;;;;;;5207625;28;20021;-72
2022/03/10 10:56:02;;;;;;;9.30;2.80;;;1.50;99.90;;;;;;5207455;28;20025;-71
2022/03/10 10:58:33;;;;;;;8.07;2.83;;;1.60;99.90;;;;;;5207413;28;20022;-72
2022/03/10 11:01:05;;;;;;;12.43;4.10;;;1.50;99.90;;;;;;5207385;28;20038;-82
2022/03/10 11:03:37;;;;;;;6.43;3.15;;;1.30;99.90;;;;;;5207334;28;20488;-75
2022/03/10 11:06:07;;;;;;;9.52;3.13;;;1.30;99.90;;;;;;5207196;28;20029;-71
2022/03/10 11:08:38;;;;;;;5.72;3.42;;;1.20;99.90;;;;;;5207136;28;20041;-81
2022/03/10 11:11:10;;;;;;;9.05;3.22;;;1.50;99.90;;;;;;5207224;28;20523;-71
2022/03/10 11:13:41;;;;;;;10.00;3.47;;;1.20;99.90;;;;;;5207294;28;20111;-80
2022/03/10 11:16:16;;;;;;;10.52;3.30;;;1.60;99.90;;;;;;5206991;28;20022;-79
2022/03/10 11:18:49;;;;;;;9.05;3.90;;;1.70;99.90;;;;;;5207152;28;20552;-75
2022/03/10 11:21:55;;;;;;;8.93;4.10;;;1.50;99.90;;;;;;5206974;28;20036;-79
2022/03/10 11:25:04;;;;;;;10.27;4.68;;;1.30;99.90;;;;;;5207066;28;20037;-79
2022/03/10 11:27:42;;;;;;;11.05;4.65;;;0.90;99.90;;;;;;5183585;28;20025;-73
2022/03/10 11:30:14;;;;;;;12.73;4.68;;;0.80;99.90;;;;;;5207076;28;20128;-72
2022/03/10 11:33:03;;;;;;;8.88;3.42;;;0.90;99.90;;;;;;5206857;28;20028;-73
2022/03/10 11:35:40;;;;;;;7.32;3.50;;;0.90;99.90;;;;;;5206834;28;20058;-71
2022/03/10 11:38:12;;;;;;;15.13;4.63;;;1.00;99.90;;;;;;5206935;28;20096;-84
2022/03/10 11:40:56;;;;;;;14.95;4.70;;;0.80;99.90;;;;;;5206897;28;20034;-71
2022/03/10 11:43:32;;;;;;;11.00;5.63;;;0.60;99.90;;;;;;5206821;28;20033;-71
2022/03/10 11:46:24;;;;;;;11.93;5.25;;;0.80;99.90;;;;;;5206605;28;20038;-86
2022/03/10 11:49:02;;;;;;;10.45;5.70;;;0.50;99.90;;;;;;5206643;28;20500;-71
2022/03/10 11:51:44;;;;;;;17.58;6.47;;;0.40;99.90;;;;;;5206689;28;20026;-84
2022/03/10 11:54:25;;;;;;;12.63;4.93;;;0.40;99.90;;;;;;5206731;28;20416;-85
2022/03/10 11:56:59;;;;;;;12.63;5.32;;;0.50;99.90;;;;;;5206558;28;20021;-71
2022/03/10 11:59:34;;;;;;;10.70;4.97;;;0.50;99.90;;;;;;5206556;28;20022;-71
2022/03/10 12:02:08;;;;;;;17.98;4.97;;;0.50;99.90;;;;;;5210260;28;20124;-85
2022/03/10 12:04:40;;;;;;;12.75;5.43;;;0.50;99.90;;;;;;5210706;28;20029;-84
2022/03/10 12:07:26;;;;;;;12.55;5.72;;;0.50;99.90;;;;;;5209592;28;20030;-72
2022/03/10 12:10:08;;;;;;;19.70;6.47;;;0.60;99.90;;;;;;5210870;28;20029;-71
2022/03/10 12:12:45;;;;;;;11.57;5.13;;;0.70;99.90;;;;;;5210839;28;20056;-71
2022/03/10 12:15:36;;;;;;;14.80;5.45;;;0.80;99.90;;;;;;5210778;28;20017;-84
2022/03/10 12:18:16;;;;;;;10.85;4.72;;;0.90;99.90;;;;;;5200089;28;20039;-71
2022/03/10 12:20:49;;;;;;;11.57;4.20;;;1.00;99.90;;;;;;5210537;28;20068;-71
2022/03/10 12:23:23;;;;;;;9.48;4.70;;;1.10;99.90;;;;;;5210478;28;20078;-85
2022/03/10 12:26:09;;;;;;;10.63;4.70;;;1.00;99.90;;;;;;5210361;28;20029;-71
2022/03/10 12:28:42;;;;;;;11.27;4.40;;;1.10;99.90;;;;;;5210381;28;20069;-72
2022/03/10 12:31:14;;;;;;;15.98;5.57;;;1.10;99.90;;;;;;5210209;28;20109;-72
2022/03/10 12:33:55;;;;;;;14.80;5.25;;;1.10;99.90;;;;;;5208708;28;20108;-71
2022/03/10 12:36:25;;;;;;;;;;;1.10;99.90;;;;;;5210799;28;20021;-84
2022/03/10 12:38:57;;;;;;;;;;;1.00;99.90;;;;;;5210697;28;19928;-85
2022/03/10 12:41:33;;;;;;;8.32;3.38;;;0.80;99.90;;;;;;5210222;28;19909;-71
2022/03/10 12:44:10;;;;;;;12.05;4.28;;;0.80;99.90;;;;;;5210145;28;20065;-71
2022/03/10 12:46:42;;;;;;;11.18;4.60;;;0.70;99.90;;;;;;5209875;28;20030;-78
2022/03/10 12:49:31;;;;;;;8.98;4.35;;;0.80;99.90;;;;;;5209933;28;20436;-80
2022/03/10 12:52:16;;;;;;;11.25;5.13;;;0.70;99.90;;;;;;5209965;28;20595;-71
2022/03/10 12:54:47;;;;;;;18.27;5.90;;;1.00;99.90;;;;;;5209892;28;20096;-72
2022/03/10 12:57:18;;;;;;;12.85;5.00;;;1.10;99.90;;;;;;5209864;28;20104;-72
2022/03/10 12:59:49;;;;;;;11.55;5.57;;;1.30;99.90;;;;;;5225228;28;20112;-71
2022/03/10 13:02:26;;;;;;;17.33;5.35;;;1.40;99.90;;;;;;5209630;28;20033;-71
2022/03/10 13:05:00;;;;;;;20.60;5.18;;;1.90;99.90;;;;;;5209503;28;20377;-70
2022/03/10 13:07:34;;;;;;;15.05;5.15;;;1.80;99.90;;;;;;5209667;28;20030;-71
2022/03/10 13:10:10;;;;;;;12.65;4.90;;;1.90;99.90;;;;;;5209586;28;20069;-72
2022/03/10 13:12:47;;;;;;;11.50;4.55;;;1.80;99.90;;;;;;5224405;28;20538;-71
2022/03/10 13:15:22;;;;;;;10.20;4.07;;;1.90;99.90;;;;;;5209611;28;20035;-72
2022/03/10 13:18:00;;;;;;;8.57;3.50;;;1.90;99.90;;;;;;5209464;28;20035;-71
2022/03/10 13:20:34;;;;;;;8.38;3.67;;;1.80;99.90;;;;;;5209461;28;20415;-71
2022/03/10 13:23:07;;;;;;;9.43;3.33;;;1.90;99.90;;;;;;5209315;28;20029;-72
2022/03/10 13:25:40;;;;;;;7.88;4.70;;;1.80;99.90;;;;;;5209329;28;20028;-80